Flight Track Log - Related Links

Times and Time Zones

All times are in EST time to prevent confusion due to time zone crossing. See the AVN20 flight status page for this flight to view local times or setup timezone preferences in your user account.

Time Position Orientation Groundspeed Altitude Reporting Facility
EST Latitude Longitude Course Direction KTS MPH feet Rate Location/Type
Fri 00:26:00 -17.9159 168.0203 233° Southwest  Level FlightAware
Fri 00:27:00 -17.9880 167.9203 233° Southwest  Level FlightAware
Fri 00:28:00 -18.0600 167.8203 233° Southwest  Level FlightAware
Fri 00:29:00 -18.1320 167.7201 233° Southwest  Level FlightAware
Fri 00:30:00 -18.2040 167.6199 233° Southwest  Level FlightAware
Fri 00:31:00 -18.2758 167.5196 233° Southwest  Level FlightAware
Fri 00:32:00 -18.3477 167.4192 233° Southwest  Level FlightAware
Fri 00:33:00 -18.4194 167.3187 233° Southwest  Level FlightAware
Fri 00:34:00 -18.4912 167.2181 233° Southwest  Level FlightAware
Fri 00:35:00 -18.5628 167.1175 233° Southwest  Level FlightAware
Fri 00:36:00 -18.6345 167.0167 233° Southwest  Level FlightAware
Fri 00:37:00 -18.7060 166.9159 233° Southwest  Level FlightAware
Fri 00:38:00 -18.7775 166.8150 233° Southwest  Level FlightAware
Fri 00:39:00 -18.8490 166.7140 233° Southwest  Level FlightAware
Fri 00:40:00 -18.9204 166.6129 233° Southwest  Level FlightAware
Fri 00:41:00 -18.9917 166.5118 233° Southwest  Level FlightAware
Fri 00:42:00 -19.0630 166.4105 233° Southwest  Level FlightAware
Fri 00:43:00 -19.1343 166.3092 233° Southwest  Level FlightAware
Fri 00:44:00 -19.2054 166.2077 233° Southwest  Level FlightAware
Fri 00:45:00 -19.2766 166.1062 233° Southwest  Level FlightAware
Fri 00:46:00 -19.3476 166.0046 233° Southwest  Level FlightAware
Fri 00:47:00 -19.4186 165.9029 233° Southwest  Level FlightAware
Fri 00:48:00 -19.4896 165.8012 234° Southwest  Level FlightAware
Fri 00:49:00 -19.5605 165.6993 234° Southwest  Level FlightAware
Fri 00:50:00 -19.6313 165.5973 234° Southwest  Level FlightAware
Fri 00:51:00 -19.7021 165.4953 234° Southwest  Level FlightAware
Fri 00:52:00 -19.7729 165.3931 234° Southwest  Level FlightAware
Fri 00:53:00 -19.8435 165.2909 234° Southwest  Level FlightAware
Fri 00:54:00 -19.9141 165.1886 234° Southwest  Level FlightAware
Fri 00:55:00 -19.9847 165.0862 234° Southwest  Level FlightAware
Fri 00:56:00 -20.0552 164.9837 234° Southwest  Level FlightAware
Fri 00:57:00 -20.1256 164.8811 234° Southwest  Level FlightAware
Fri 00:58:00 -20.1960 164.7784 234° Southwest  Level FlightAware
Fri 00:59:00 -20.2663 164.6756 234° Southwest  Level FlightAware
Fri 01:00:00 -20.3365 164.5728 234° Southwest  Level FlightAware
Fri 01:01:00 -20.4067 164.4698 234° Southwest  Level FlightAware
Fri 01:02:00 -20.4769 164.3667 234° Southwest  Level FlightAware
Fri 01:03:00 -20.5469 164.2636 234° Southwest  Level FlightAware
Fri 01:04:00 -20.6169 164.1603 234° Southwest  Level FlightAware
Fri 01:05:00 -20.6869 164.0570 234° Southwest  Level FlightAware
Fri 01:06:00 -20.7568 163.9535 234° Southwest  Level FlightAware
Fri 01:07:00 -20.8266 163.8500 234° Southwest  Level FlightAware
Fri 01:08:00 -20.8964 163.7464 234° Southwest  Level FlightAware
Fri 01:09:00 -20.9661 163.6427 234° Southwest  Level FlightAware
Fri 01:10:00 -21.0357 163.5388 234° Southwest  Level FlightAware
Fri 01:11:00 -21.1053 163.4349 234° Southwest  Level FlightAware
Fri 01:12:00 -21.1748 163.3309 234° Southwest  Level FlightAware
Fri 01:13:00 -21.2442 163.2268 234° Southwest  Level FlightAware
Fri 01:14:00 -21.3136 163.1226 234° Southwest  Level FlightAware
Fri 01:15:00 -21.3830 163.0182 234° Southwest  Level FlightAware
Fri 01:15:08 -21.5094 162.8273 235° Southwest 34,000  Level Aus
Fri 01:17:00 -21.6271 162.6492 235° Southwest  Level FlightAware
Fri 01:18:00 -21.6900 162.5537 235° Southwest  Level FlightAware
Fri 01:18:08 -21.7116 162.5209 235° Southwest 34,000  Level Aus
Fri 01:20:00 -21.8290 162.3423 235° Southwest  Level FlightAware
Fri 01:20:00 -21.8335 162.3353 235° Southwest 34,000  Level Aus
Fri 01:21:00 -21.8963 162.2395 235° Southwest  Level FlightAware
Fri 01:22:00 -21.9590 162.1436 235° Southwest  Level FlightAware
Fri 01:22:42 -22.0046 162.0739 235° Southwest 34,000  Level Aus
Fri 01:23:00 -22.0217 162.0477 235° Southwest  Level FlightAware
Fri 01:24:00 -22.0860 161.9490 235° Southwest  Level FlightAware
Fri 01:25:00 -22.1485 161.8528 235° Southwest  Level FlightAware
Fri 01:26:00 -22.2110 161.7566 235° Southwest  Level FlightAware
Fri 01:27:00 -22.2734 161.6603 235° Southwest  Level FlightAware
Fri 01:28:00 -22.3358 161.5639 235° Southwest  Level FlightAware
Fri 01:29:00 -22.3981 161.4674 235° Southwest  Level FlightAware
Fri 01:30:00 -22.4604 161.3708 235° Southwest  Level FlightAware
Fri 01:31:00 -22.5226 161.2741 235° Southwest  Level FlightAware
Fri 01:32:00 -22.5848 161.1774 235° Southwest  Level FlightAware
Fri 01:33:00 -22.6469 161.0805 235° Southwest  Level FlightAware
Fri 01:34:00 -22.7089 160.9836 235° Southwest  Level FlightAware
Fri 01:35:00 -22.7708 160.8866 235° Southwest  Level FlightAware
Fri 01:36:00 -22.8328 160.7895 235° Southwest  Level FlightAware
Fri 01:37:00 -22.8946 160.6923 235° Southwest  Level FlightAware
Fri 01:38:00 -22.9564 160.5950 235° Southwest  Level FlightAware
Fri 01:39:00 -23.0182 160.4977 235° Southwest  Level FlightAware
Fri 01:40:00 -23.0798 160.4002 235° Southwest  Level FlightAware
Fri 01:41:00 -23.1415 160.3026 236° Southwest  Level FlightAware
Fri 01:42:00 -23.2030 160.2050 236° Southwest  Level FlightAware
Fri 01:43:00 -23.2645 160.1073 236° Southwest  Level FlightAware
Fri 01:44:00 -23.3260 160.0094 236° Southwest  Level FlightAware
Fri 01:45:00 -23.3873 159.9115 236° Southwest  Level FlightAware
Fri 01:46:00 -23.4486 159.8135 236° Southwest  Level FlightAware
Fri 01:47:00 -23.5099 159.7155 236° Southwest  Level FlightAware
Fri 01:48:00 -23.5711 159.6173 236° Southwest  Level FlightAware
Fri 01:48:17 -23.8671 159.1419 236° Southwest 36,000  Level Aus
Fri 01:49:00 -23.6322 159.5190 236° Southwest  Level FlightAware
Fri 01:50:00 -23.9806 158.9589 236° Southwest  Level Estimated
Fri 01:50:29 -24.0319 158.8757 236° Southwest 36,000  Level Aus
Fri 01:51:00 -24.0466 158.8522 236° Southwest  Level FlightAware
Fri 01:52:00 -24.1318 158.7136 236° Southwest  Level FlightAware
Fri 01:53:00 -24.1975 158.6066 236° Southwest  Level FlightAware
Fri 01:54:00 -24.2632 158.4995 236° Southwest  Level FlightAware
Fri 01:55:00 -24.3289 158.3922 236° Southwest  Level FlightAware
Fri 01:56:00 -24.3944 158.2849 236° Southwest  Level FlightAware
Fri 01:56:00 -24.3926 158.2878 236° Southwest 36,000  Level Aus
Fri 01:57:00 -24.4581 158.1803 236° Southwest  Level FlightAware
Fri 01:58:00 -24.5235 158.0728 236° Southwest  Level FlightAware
Fri 01:58:48 -24.5885 157.9657 237° Southwest 36,000  Level Aus
Fri 01:59:00 -24.5888 157.9651 236° Southwest  Level FlightAware
Fri 02:00:00 -24.6667 157.8364 236° Southwest  Level FlightAware
Fri 02:01:00 -24.7319 157.7284 236° Southwest  Level FlightAware
Fri 02:02:00 -24.7970 157.6204 236° Southwest  Level FlightAware
Fri 02:03:00 -24.8620 157.5122 236° Southwest  Level FlightAware
Fri 02:04:00 -24.9269 157.4040 237° Southwest  Level FlightAware
Fri 02:05:00 -24.9918 157.2956 237° Southwest  Level FlightAware
Fri 02:05:15 -25.0427 157.2103 247° West 36,000  Level Aus
Fri 02:07:00 -25.1558 157.0202 237° Southwest  Level FlightAware
Fri 02:08:00 -25.2204 156.9114 237° Southwest  Level FlightAware
Fri 02:09:00 -25.2849 156.8025 237° Southwest  Level FlightAware
Fri 02:10:00 -25.3493 156.6935 237° Southwest  Level FlightAware
Fri 02:11:00 -25.4136 156.5844 237° Southwest  Level FlightAware
Fri 02:11:13 -25.4609 156.5039 57° Northeast 36,000  Level Aus
Fri 02:11:55 -25.4930 156.4494 57° Northeast 36,000  Level Aus
Fri 02:13:00 -25.5890 156.2856 57° Northeast 36,000  Level Aus
Fri 02:13:00 -25.5625 156.3309 237° Southwest  Level FlightAware
Fri 02:14:00 -25.6530 156.1760 237° Southwest  Level FlightAware
Fri 02:14:25 -25.6848 156.1216 57° Northeast 36,000  Level Aus
Fri 02:15:00 -25.7169 156.0663 237° Southwest  Level FlightAware
Fri 02:15:00 -25.7167 156.0668 57° Northeast 16,800  Level Aus
Fri 02:15:59 -25.8302 155.9432 56° Northeast 16,800 5,647 Level Aus
Fri 02:16:00 -25.5989 156.0668 North  Level FlightAware
Fri 02:17:00 -25.7447 156.0363 44° Northeast  Level FlightAware
Fri 02:18:00 -25.6606 156.1277 44° Northeast  Level FlightAware
Fri 02:18:24 -25.0504 157.1907 44° Northeast 400 460 36,000  Level Aus
Fri 02:18:39 -25.0650 157.1633 239° Southwest 400 460 36,000  Level Aus
Fri 02:19:14 -25.1039 157.1045 234° Southwest 400 460 36,000  Level Aus
Fri 02:20:09 -25.1614 157.0099 236° Southwest 399 459 36,000  Level Aus
Fri 02:20:44 -25.1963 156.9475 238° Southwest 400 460 36,000  Level Aus
Fri 02:21:39 -25.2527 156.8516 237° Southwest 400 460 36,000  Level Aus
Fri 02:22:14 -25.2906 156.7922 235° Southwest 399 459 36,000  Level Aus
Fri 02:23:29 -25.3683 156.6632 236° Southwest 397 457 36,000  Level Aus
Fri 02:23:49 -25.3885 156.6282 237° Southwest 398 458 36,000  Level Aus
Fri 02:24:29 -25.4296 156.5594 236° Southwest 397 457 36,000  Level Aus
Fri 02:25:13 -25.4753 156.4815 237° Southwest 397 457 36,000  Level Aus
Fri 02:25:33 -25.4950 156.4466 238° Southwest 396 456 36,000  Level Aus
Fri 02:26:08 -25.5298 156.3858 238° Southwest 395 455 36,000 -80 Level Aus
Fri 02:26:48 -25.5697 156.3169 237° Southwest 394 453 35,900 -75 Descending Aus
Fri 02:27:28 -25.6098 156.2480 237° Southwest 394 453 35,900  Level Aus
Fri 02:28:28 -25.6694 156.1421 238° Southwest 399 459 35,900  Level Aus
Fri 02:28:53 -25.6949 156.0996 236° Southwest 398 458 35,900  Level Aus
Fri 02:29:28 -25.7334 156.0401 234° Southwest 403 464 35,900  Level Aus
Fri 02:30:13 -25.7956 155.9743 224° Southwest 408 470 35,900  Level Aus
Fri 02:30:53 -25.8520 155.9174 222° Southwest 407 468 35,900  Level Aus
Fri 02:31:38 -25.9091 155.8570 224° Southwest 374 430 35,900  Level Aus
Fri 02:32:03 -25.9400 155.8236 224° Southwest 371 427 35,900  Level Aus
Fri 02:32:38 -25.9821 155.7755 226° Southwest 369 425 35,900  Level Aus
Fri 02:33:47 -26.0682 155.6826 224° Southwest 369 425 35,900  Level Aus
Fri 02:34:02 -26.0861 155.6620 226° Southwest 368 423 35,900  Level Aus
Fri 02:34:42 -26.1347 155.6086 225° Southwest 366 421 35,900  Level Aus
Fri 02:35:27 -26.1894 155.5491 224° Southwest 364 419 35,900  Level Aus
Fri 02:36:02 -26.2317 155.5023 225° Southwest 365 420 35,900  Level Aus
Fri 02:36:57 -26.2984 155.4289 225° Southwest 366 421 35,900  Level Aus
Fri 02:37:12 -26.3163 155.4089 225° Southwest 364 419 35,900  Level Aus
Fri 02:37:47 -26.3657 155.3709 215° Southwest 366 421 35,900  Level Aus
Fri 02:38:57 -26.4923 155.3405 192° South 398 458 35,900  Level Aus
Fri 02:39:12 -26.5188 155.3329 194° South 398 458 35,900  Level Aus
Fri 02:39:52 -26.5912 155.3133 194° South 401 461 35,900  Level Aus
Fri 02:40:27 -26.6543 155.2956 194° South 402 463 35,900  Level Aus
Fri 02:41:07 -26.7260 155.2756 194° South 401 461 35,900  Level Aus
Fri 02:41:57 -26.8160 155.2510 194° South 400 460 35,900  Level Aus
Fri 02:42:12 -26.8431 155.2436 194° South 401 461 35,900 -120 Level Aus
Fri 02:42:47 -26.9056 155.2265 194° South 398 458 35,800 -947 Descending Aus
Fri 02:43:47 -27.0088 155.1999 193° South 384 442 34,400 -1,286 Descending Aus
Fri 02:44:11 -27.0494 155.1872 196° South 372 428 34,000 -1,406 Descending Aus
Fri 02:44:51 -27.1138 155.1657 197° South 368 423 32,900 -1,650 Descending Aus
Fri 02:45:31 -27.1640 155.1252 216° Southwest 339 390 31,800 -1,579 Descending Aus
Fri 02:45:48 -27.1830 155.1110 213° Southwest 330 380 31,400 -1,371 Descending FlightAware
Fri 02:46:06 -27.2094 155.0916 213° Southwest 336 387 31,000 -828 Descending Aus
Fri 02:46:17 -27.2190 155.0840 214° Southwest 330 380 31,000 -960 Level FlightAware
Fri 02:46:56 -27.2746 155.0433 214° Southwest 338 389 30,200 -1,125 Descending Aus
Fri 02:47:21 -27.3064 155.0192 214° Southwest 334 384 29,800 -692 Descending Aus
Fri 02:47:22 -27.3050 155.0190 214° Southwest 330 380 29,900 -1,029 Climbing FlightAware
Fri 02:47:56 -27.3500 154.9853 214° Southwest 329 379 29,200 -1,082 Descending Aus
Fri 02:48:23 -27.3800 154.9600 214° Southwest 316 364 28,800 -1,091 Descending FlightAware
Fri 02:48:51 -27.4030 154.9220 236° Southwest 305 351 28,200 -1,158 Descending FlightAware
Fri 02:49:20 -27.4160 154.8810 250° West 300 345 27,700 -1,108 Descending FlightAware
Fri 02:49:56 -27.4236 154.8210 250° West 304 350 27,000 -957 Descending Aus
Fri 02:50:29 -27.4300 154.7700 250° West 305 351 26,600 -857 Descending FlightAware
Fri 02:51:06 -27.4370 154.7120 250° West 302 348 26,000 -1,149 Descending FlightAware
Fri 02:51:16 -27.4395 154.6947 250° West 300 345 25,700 -1,200 Descending Aus
Fri 02:52:01 -27.4475 154.6253 250° West 294 338 24,900 -885 Descending Aus
Fri 02:52:17 -27.4510 154.6060 250° West 291 335 24,800 -875 Descending FlightAware
Fri 02:52:49 -27.4570 154.5560 262° West 286 329 24,200 -1,029 Descending FlightAware
Fri 02:53:27 -27.4640 154.5000 262° West 286 329 23,600 -1,000 Descending FlightAware
Fri 02:53:55 -27.4700 154.4580 261° West 287 330 23,100 -1,219 Descending FlightAware
Fri 02:54:31 -27.4760 154.4050 263° West 279 321 22,300 -1,254 Descending FlightAware
Fri 02:55:02 -27.4820 154.3630 261° West 275 316 21,700 -1,333 Descending FlightAware
Fri 02:55:43 -27.4890 154.3060 261° West 274 315 20,700 -1,625 Descending FlightAware
Fri 02:55:50 -27.4907 154.2910 261° West 271 312 20,400 -1,429 Descending Aus
Fri 02:56:25 -27.4970 154.2430 262° West 269 310 19,700 -1,475 Descending FlightAware
Fri 02:56:51 -27.5010 154.2080 263° West 275 316 18,900 -738 Descending FlightAware
Fri 02:57:30 -27.5070 154.1600 262° West 275 316 18,900 -1,167 Level FlightAware
Fri 02:58:03 -27.5140 154.1070 262° West 275 316 17,500 -2,259 Descending FlightAware
Fri 02:58:55 -27.5157 154.0284 262° West 286 329 15,700 -1,846 Descending Aus
Fri 02:58:55 -27.5150 154.0310 262° West 296 341 15,900 -750 Climbing FlightAware
Fri 02:59:43 -27.5030 153.9560 262° West 304 350 15,100 -1,080 Descending FlightAware
Fri 02:59:45 -27.5019 153.9506 262° West 301 346 15,000 -1,459 Descending Aus
Fri 03:00:20 -27.4926 153.8967 262° West 299 344 14,200 -1,200 Descending Aus
Fri 03:00:20 -27.4930 153.8980 262° West 299 344 14,300 -1,600 Climbing FlightAware
Fri 03:01:05 -27.4813 153.8279 262° West 295 339 13,000 -1,565 Descending Aus
Fri 03:01:06 -27.4820 153.8290 262° West 294 338 13,100 -968 Climbing FlightAware
Fri 03:01:36 -27.4750 153.7880 281° West 291 335 12,500 -1,364 Descending FlightAware
Fri 03:02:12 -27.4660 153.7320 280° West 285 328 11,600 -1,452 Descending FlightAware
Fri 03:02:38 -27.4600 153.6960 281° West 283 326 11,000 -1,500 Descending FlightAware
Fri 03:03:04 -27.4530 153.6560 281° West 281 323 10,300 -560 Descending FlightAware
Fri 03:03:53 -27.4440 153.5960 280° West 281 323 10,300 -1,271 Level FlightAware
Fri 03:04:29 -27.4330 153.5380 280° West 272 313 8,500 -3,073 Descending FlightAware
Fri 03:04:34 -27.4317 153.5280 280° West 264 304 8,200 -1,371 Descending Aus
Fri 03:05:04 -27.4365 153.4866 280° West 264 304 7,700 -706 Descending Aus
Fri 03:05:08 -27.4370 153.4870 280° West 273 314 7,800 -545 Climbing FlightAware
Fri 03:05:37 -27.4520 153.4540 243° Southwest 270 311 7,400 -732 Descending FlightAware
Fri 03:05:49 -27.4600 153.4360 243° Southwest 271 312 7,300 -894 Descending FlightAware
Fri 03:06:24 -27.4819 153.3857 243° Southwest 269 310 6,700 -875 Descending Aus
Fri 03:06:37 -27.4870 153.3740 243° Southwest 270 311 6,600 -720 Descending FlightAware
Fri 03:06:49 -27.4960 153.3540 243° Southwest 271 312 6,400 -700 Descending FlightAware
Fri 03:07:37 -27.5210 153.2960 243° Southwest 272 313 5,900 -840 Descending FlightAware
Fri 03:07:39 -27.5237 153.2906 243° Southwest 271 312 5,700 -973 Descending Aus
Fri 03:08:14 -27.5432 153.2466 243° Southwest 269 310 5,300 -632 Descending Aus
Fri 03:08:17 -27.5430 153.2470 243° Southwest 266 306 5,300 -667 Level FlightAware
Fri 03:08:41 -27.5560 153.2170 244° Southwest 256 295 5,000 -774 Descending FlightAware
Fri 03:09:19 -27.5768 153.1698 244° Southwest 249 287 4,500 -714 Descending Aus
Fri 03:09:23 -27.5770 153.1680 244° Southwest 250 288 4,500 -500 Level FlightAware
Fri 03:10:07 -27.5970 153.1210 244° Southwest 235 270 4,100 -783 Descending FlightAware
Fri 03:10:09 -27.5986 153.1121 244° Southwest 237 273 3,900 -162 Descending Aus
Fri 03:10:44 -27.6030 153.0840 260° West 229 264 4,000 -750 Climbing FlightAware
Fri 03:11:29 -27.5460 153.0543 260° West 213 245 2,900 -1,137 Descending Aus
Fri 03:12:19 -27.5029 153.0610 North 184 212 2,200 -943 Descending Aus
Fri 03:12:39 -27.4883 153.0701 29° Northeast 182 209 1,800 -873 Descending Aus
Fri 03:13:14 -27.4672 153.0817 26° Northeast 149 171 1,400 -716 Descending Aus
Fri 03:14:28 -27.4237 153.1067 27° Northeast 143 165 500 -733 Descending Aus
Fri 03:14:44 -27.4145 153.1120 27° Northeast 146 168 300 -750 Descending Aus

Login

Don't have an account? Register now (free) for customized features, flight alerts, and more!